createdAt,value
2018-12-01T00:00:38.595Z,100136.00
2018-12-01T00:05:41.486Z,100132.00
2018-12-01T00:10:44.517Z,100136.00
2018-12-01T00:15:47.430Z,100128.00
2018-12-01T00:20:50.416Z,100127.00
2018-12-01T00:25:53.440Z,100139.00
2018-12-01T00:30:56.393Z,100131.00
2018-12-01T00:35:59.533Z,100153.00
2018-12-01T00:41:02.460Z,100162.00
2018-12-01T00:46:05.566Z,100164.00
2018-12-01T00:51:08.537Z,100158.00
2018-12-01T00:56:11.484Z,100168.00
2018-12-01T01:01:14.552Z,100162.00
2018-12-01T01:06:17.533Z,100159.00
2018-12-01T01:11:20.574Z,100164.00
2018-12-01T01:16:23.572Z,100168.00
2018-12-01T01:21:26.550Z,100173.00
2018-12-01T01:26:29.548Z,100170.00
2018-12-01T01:31:32.454Z,100171.00
2018-12-01T01:36:35.417Z,100168.00
2018-12-01T01:41:38.347Z,100163.00
2018-12-01T01:46:41.304Z,100170.00
2018-12-01T01:51:44.305Z,100169.00
2018-12-01T01:56:47.383Z,100183.00
2018-12-01T02:01:50.399Z,100172.00
2018-12-01T02:06:53.384Z,100168.00
2018-12-01T02:11:56.351Z,100166.00
2018-12-01T02:16:59.295Z,100162.00
2018-12-01T02:22:02.321Z,100165.00
2018-12-01T02:27:05.586Z,100153.00
2018-12-01T02:32:08.616Z,100154.00
2018-12-01T02:37:11.562Z,100150.00
2018-12-01T02:42:14.531Z,100143.00
2018-12-01T02:47:17.501Z,100133.00
2018-12-01T02:52:20.502Z,100122.00
2018-12-01T02:57:23.502Z,100138.00
2018-12-01T03:02:26.450Z,100137.00
2018-12-01T03:07:29.429Z,100132.00
2018-12-01T03:12:32.355Z,100137.00
2018-12-01T03:17:35.315Z,100139.00
2018-12-01T03:22:38.322Z,100138.00
2018-12-01T03:27:41.332Z,100138.00
2018-12-01T03:32:44.282Z,100142.00
2018-12-01T03:37:48.244Z,100137.00
2018-12-01T03:42:52.221Z,100144.00
2018-12-01T03:47:55.153Z,100159.00
2018-12-01T03:52:58.109Z,100153.00
2018-12-01T03:58:01.961Z,100162.00
2018-12-01T04:03:06.288Z,100155.00
2018-12-01T04:08:09.251Z,100150.00
2018-12-01T04:13:12.386Z,100158.00
2018-12-01T04:18:15.270Z,100156.00
2018-12-01T04:23:18.173Z,100158.00
2018-12-01T04:28:21.193Z,100156.00
2018-12-01T04:33:24.133Z,100146.00
2018-12-01T04:38:27.105Z,100162.00
2018-12-01T04:43:30.102Z,100164.00
2018-12-01T04:48:33.086Z,100166.00
2018-12-01T04:53:36.031Z,100171.00
2018-12-01T04:58:38.994Z,100178.00
2018-12-01T05:03:41.885Z,100180.00
2018-12-01T05:08:44.813Z,100190.00
2018-12-01T05:13:47.786Z,100192.00
2018-12-01T05:18:50.702Z,100184.00
2018-12-01T05:23:53.954Z,100184.00
2018-12-01T05:28:56.894Z,100194.00
2018-12-01T05:33:59.861Z,100193.00
2018-12-01T05:39:03.759Z,100202.00
2018-12-01T05:44:06.790Z,100202.00
2018-12-01T05:49:09.861Z,100201.00
2018-12-01T05:54:12.938Z,100197.00
2018-12-01T05:59:15.949Z,100198.00
2018-12-01T06:04:18.905Z,100204.00
2018-12-01T06:09:21.895Z,100213.00
2018-12-01T06:14:24.859Z,100210.00
2018-12-01T06:19:27.956Z,100203.00
2018-12-01T06:24:30.929Z,100202.00
2018-12-01T06:29:33.946Z,100204.00
2018-12-01T06:34:36.876Z,100209.00
2018-12-01T06:39:39.867Z,100212.00
2018-12-01T06:44:42.898Z,100198.00
2018-12-01T06:49:45.891Z,100218.00
2018-12-01T06:54:48.865Z,100229.00
2018-12-01T06:59:51.794Z,100223.00
2018-12-01T07:04:54.757Z,100228.00
2018-12-01T07:09:57.718Z,100243.00
2018-12-01T07:15:00.679Z,100244.00
2018-12-01T07:20:04.356Z,100240.00
2018-12-01T07:25:07.660Z,100238.00
2018-12-01T07:30:12.741Z,100234.00
2018-12-01T07:35:15.975Z,100235.00
2018-12-01T07:40:18.974Z,100222.00
2018-12-01T07:45:21.978Z,100224.00
2018-12-01T07:50:24.898Z,100223.00
2018-12-01T07:55:27.890Z,100226.00
2018-12-01T08:00:30.892Z,100230.00
2018-12-01T08:05:33.909Z,100227.00
2018-12-01T08:10:36.902Z,100221.00
2018-12-01T08:15:39.858Z,100227.00
2018-12-01T08:20:42.877Z,100206.00
2018-12-01T08:25:45.878Z,100205.00
2018-12-01T08:30:49.714Z,100214.00
2018-12-01T08:35:52.717Z,100212.00
2018-12-01T08:40:56.054Z,100202.00
2018-12-01T08:45:59.073Z,100218.00
2018-12-01T08:51:02.042Z,100220.00
2018-12-01T08:56:05.259Z,100229.00
2018-12-01T09:01:08.284Z,100238.00
2018-12-01T09:06:11.340Z,100240.00
2018-12-01T09:11:14.346Z,100241.00
2018-12-01T09:16:17.327Z,100254.00
2018-12-01T09:21:20.269Z,100257.00
2018-12-01T09:26:23.222Z,100263.00
2018-12-01T09:31:26.236Z,100249.00
2018-12-01T09:36:29.208Z,100239.00
2018-12-01T09:41:32.196Z,100229.00
2018-12-01T09:46:35.302Z,100228.00
2018-12-01T09:51:38.307Z,100226.00
2018-12-01T09:56:41.309Z,100247.00
2018-12-01T10:01:44.421Z,100247.00
2018-12-01T10:06:47.450Z,100250.00
2018-12-01T10:11:50.641Z,100228.00
2018-12-01T10:16:53.428Z,100239.00
2018-12-01T10:21:56.471Z,100228.00
2018-12-01T10:26:59.515Z,100241.00
2018-12-01T10:32:02.566Z,100233.00
2018-12-01T10:37:06.045Z,100236.00
2018-12-01T10:42:08.982Z,100247.00
2018-12-01T10:47:12.114Z,100232.00
2018-12-01T10:52:15.113Z,100231.00
2018-12-01T10:57:18.214Z,100238.00
2018-12-01T11:02:26.923Z,100233.00
2018-12-01T11:07:29.902Z,100229.00
2018-12-01T11:12:32.881Z,100207.00
2018-12-01T11:17:35.897Z,100201.00
2018-12-01T11:22:39.075Z,100192.00
2018-12-01T11:27:42.243Z,100188.00
2018-12-01T11:32:45.875Z,100178.00
2018-12-01T11:37:48.909Z,100183.00
2018-12-01T11:42:51.947Z,100168.00
2018-12-01T11:47:55.124Z,100166.00
2018-12-01T11:52:58.133Z,100153.00
2018-12-01T11:58:01.172Z,100148.00
2018-12-01T12:03:04.568Z,100144.00
2018-12-01T12:08:25.713Z,100151.00
2018-12-01T12:13:29.110Z,100142.00
2018-12-01T12:18:32.536Z,100129.00
2018-12-01T12:23:35.905Z,100144.00
2018-12-01T12:28:39.300Z,100128.00
2018-12-01T12:33:42.717Z,100130.00
2018-12-01T12:38:45.601Z,100128.00
2018-12-01T12:43:48.544Z,100116.00
2018-12-01T12:48:51.593Z,100116.00
2018-12-01T12:53:54.890Z,100100.00
2018-12-01T12:58:57.934Z,100101.00
2018-12-01T13:04:00.968Z,100085.00
2018-12-01T13:09:07.425Z,100080.00
2018-12-01T13:14:10.474Z,100079.00
2018-12-01T13:19:13.500Z,100074.00
2018-12-01T13:24:16.494Z,100065.00
2018-12-01T13:29:19.651Z,100073.00
2018-12-01T13:34:22.737Z,100066.00
2018-12-01T13:39:25.811Z,100055.00
2018-12-01T13:44:28.962Z,100055.00
2018-12-01T13:49:32.130Z,100057.00
2018-12-01T13:54:35.234Z,100049.00
2018-12-01T13:59:38.226Z,100050.00
2018-12-01T14:04:41.221Z,100041.00
2018-12-01T14:09:44.195Z,100049.00
2018-12-01T14:14:47.155Z,100043.00
2018-12-01T14:19:50.199Z,100027.00
2018-12-01T14:24:53.337Z,100030.00
2018-12-01T14:29:56.256Z,100041.00
2018-12-01T14:34:59.458Z,100041.00
2018-12-01T14:40:02.779Z,100036.00
2018-12-01T14:45:09.089Z,100029.00
2018-12-01T14:50:14.751Z,100021.00
2018-12-01T14:55:18.139Z,100018.00
2018-12-01T15:00:24.731Z,100014.00
2018-12-01T15:05:27.759Z,100008.00
2018-12-01T15:10:30.745Z,100003.00
2018-12-01T15:15:33.850Z,100008.00
2018-12-01T15:20:36.948Z,100010.00
2018-12-01T15:25:39.991Z,100015.00
2018-12-01T15:30:43.084Z,100027.00
2018-12-01T15:35:46.787Z,100019.00
2018-12-01T15:40:51.127Z,99990.00
2018-12-01T15:45:54.129Z,100007.00
2018-12-01T15:50:57.258Z,100006.00
2018-12-01T15:56:00.295Z,99997.00
2018-12-01T16:01:03.389Z,100001.00
2018-12-01T16:06:06.639Z,99993.00
2018-12-01T16:11:09.830Z,99983.00
2018-12-01T16:16:12.908Z,99993.00
2018-12-01T16:21:16.195Z,99982.00
2018-12-01T16:26:19.275Z,99986.00
2018-12-01T16:31:22.353Z,99975.00
2018-12-01T16:36:25.318Z,99967.00
2018-12-01T16:41:32.730Z,99957.00
2018-12-01T16:46:35.750Z,99959.00
2018-12-01T16:51:38.887Z,99945.00
2018-12-01T16:56:42.019Z,99945.00
2018-12-01T17:01:45.033Z,99941.00
2018-12-01T17:06:48.020Z,99929.00
2018-12-01T17:11:51.088Z,99933.00
2018-12-01T17:16:54.537Z,99938.00
2018-12-01T17:21:57.588Z,99928.00
2018-12-01T17:27:00.618Z,99918.00
2018-12-01T17:32:03.770Z,99910.00
2018-12-01T17:37:06.794Z,99901.00
2018-12-01T17:42:12.824Z,99908.00
2018-12-01T17:47:15.901Z,99915.00
2018-12-01T17:52:19.036Z,99935.00
2018-12-01T17:57:22.094Z,99928.00
2018-12-01T18:02:25.150Z,99917.00
2018-12-01T18:07:28.145Z,99921.00
2018-12-01T18:12:31.238Z,99909.00
2018-12-01T18:17:34.227Z,99898.00
2018-12-01T18:22:37.286Z,99896.00
2018-12-01T18:27:40.384Z,99898.00
2018-12-01T18:32:43.695Z,99881.00
2018-12-01T18:37:46.690Z,99882.00
2018-12-01T18:42:50.439Z,99879.00
2018-12-01T18:47:53.427Z,99882.00
2018-12-01T18:52:58.454Z,99870.00
2018-12-01T18:58:01.552Z,99872.00
2018-12-01T19:03:05.264Z,99860.00
2018-12-01T19:08:08.270Z,99864.00
2018-12-01T19:13:11.327Z,99852.00
2018-12-01T19:18:14.312Z,99836.00
2018-12-01T19:23:18.390Z,99822.00
2018-12-01T19:28:21.467Z,99812.00
2018-12-01T19:33:24.950Z,99812.00
2018-12-01T19:38:29.381Z,99804.00
2018-12-01T19:43:32.344Z,99798.00
2018-12-01T19:48:35.443Z,99793.00
2018-12-01T19:53:38.473Z,99770.00
2018-12-01T19:58:41.427Z,99778.00
2018-12-01T20:03:44.504Z,99772.00
2018-12-01T20:08:47.567Z,99770.00
2018-12-01T20:13:50.561Z,99762.00
2018-12-01T20:18:54.186Z,99766.00
2018-12-01T20:23:57.252Z,99760.00
2018-12-01T20:29:00.212Z,99745.00
2018-12-01T20:34:03.657Z,99725.00
2018-12-01T20:39:31.921Z,99733.00
2018-12-01T20:44:35.008Z,99726.00
2018-12-01T20:49:38.123Z,99712.00
2018-12-01T20:54:44.795Z,99710.00
2018-12-01T20:59:47.834Z,99712.00
2018-12-01T21:04:50.956Z,99712.00
2018-12-01T21:09:53.919Z,99708.00
2018-12-01T21:14:57.117Z,99689.00
2018-12-01T21:20:00.171Z,99679.00
2018-12-01T21:25:03.351Z,99684.00
2018-12-01T21:30:12.815Z,99681.00
2018-12-01T21:35:15.926Z,99666.00
2018-12-01T21:40:19.679Z,99656.00
2018-12-01T21:45:22.862Z,99659.00
2018-12-01T21:50:25.903Z,99645.00
2018-12-01T21:55:28.970Z,99639.00
2018-12-01T22:00:32.583Z,99637.00
2018-12-01T22:05:41.296Z,99633.00
2018-12-01T22:10:47.383Z,99628.00
2018-12-01T22:15:50.405Z,99624.00
2018-12-01T22:20:53.702Z,99624.00
2018-12-01T22:25:56.619Z,99621.00
2018-12-01T22:30:59.729Z,99620.00
2018-12-01T22:36:03.163Z,99607.00
2018-12-01T22:41:06.382Z,99607.00
2018-12-01T22:46:09.412Z,99597.00
2018-12-01T22:51:12.425Z,99589.00
2018-12-01T22:56:15.418Z,99590.00
2018-12-01T23:01:18.556Z,99583.00
2018-12-01T23:06:21.539Z,99580.00
2018-12-01T23:11:24.616Z,99581.00
2018-12-01T23:16:27.617Z,99572.00
2018-12-01T23:21:30.751Z,99561.00
2018-12-01T23:26:33.733Z,99553.00
2018-12-01T23:31:36.794Z,99555.00
2018-12-01T23:36:39.791Z,99548.00
2018-12-01T23:41:42.770Z,99542.00
2018-12-01T23:46:45.741Z,99540.00
2018-12-01T23:51:48.730Z,99531.00
2018-12-01T23:56:51.738Z,99523.00
